KSBP

San Luis County Regional Airport

San Luis Obispo, California, USA
KSBP 212342Z 2200/2224 32018G25KT P6SM SKC FM220300 33010KT P6SM SKC FM220900 02009KT P6SM SKC FM222100 34009KT P6SM SKC
Issued Valid From Valid To
Jan-21 @ 23:42 UTC
(43 minutes ago)
Jan-22 @ 00:00 UTC
(25 minutes ago)
Jan-23 @ 00:00 UTC
(in 24 hours)
Jan-22 @ 00:00 to Jan-22 @ 03:00
KSBP 212342Z 2200/2224 32018G25KT P6SM SKC
Wind Visibility Clouds
320° at 18 knots
 Gusting to 25 knots
Greater than 6 miles
  • Clear skies
From Jan-22 @ 03:00 to Jan-22 @ 09:00
FM220300 33010KT P6SM SKC
Wind Visibility Clouds
330° at 10 knots Greater than 6 miles
  • Clear skies
From Jan-22 @ 09:00 to Jan-22 @ 21:00
FM220900 02009KT P6SM SKC
Wind Visibility Clouds
20° at 9 knots Greater than 6 miles
  • Clear skies
From Jan-22 @ 21:00 to Jan-23 @ 00:00
FM222100 34009KT P6SM SKC
Wind Visibility Clouds
340° at 9 knots Greater than 6 miles
  • Clear skies
KSBP 212342Z 2200/2224 32018G25KT P6SM SKC FM220300 33010KT P6SM SKC FM220900 02009KT P6SM SKC FM222100 34009KT P6SM SKC
Issued Jan-21 @ 23:42 UTC
(43 minutes ago)
Valid From Jan-22 @ 00:00 UTC
(25 minutes ago)
Valid To Jan-23 @ 00:00 UTC
(in 24 hours)
Jan-22 @ 00:00 - Jan-22 @ 03:00
Wind Visibility
320° at 18 knots
 Gusting to 25 knots
Greater than 6 miles
Clouds
  • Clear skies
From Jan-22 @ 03:00 - Jan-22 @ 09:00
Wind Visibility
330° at 10 knots Greater than 6 miles
Clouds
  • Clear skies
From Jan-22 @ 09:00 - Jan-22 @ 21:00
Wind Visibility
20° at 9 knots Greater than 6 miles
Clouds
  • Clear skies
From Jan-22 @ 21:00 - Jan-23 @ 00:00
Wind Visibility
340° at 9 knots Greater than 6 miles
Clouds
  • Clear skies